createdAt,value
2018-11-01T00:00:18.042Z,8.77
2018-11-01T00:02:47.662Z,9.40
2018-11-01T00:05:23.383Z,10.37
2018-11-01T00:07:52.227Z,6.83
2018-11-01T00:10:22.046Z,8.30
2018-11-01T00:12:53.517Z,9.40
2018-11-01T00:15:26.401Z,6.83
2018-11-01T00:18:01.582Z,7.50
2018-11-01T00:20:32.336Z,7.23
2018-11-01T00:23:01.560Z,9.07
2018-11-01T00:25:42.555Z,10.13
2018-11-01T00:28:11.510Z,8.53
2018-11-01T00:30:49.873Z,10.10
2018-11-01T00:33:33.828Z,8.27
2018-11-01T00:36:03.545Z,7.97
2018-11-01T00:38:35.212Z,8.80
2018-11-01T00:41:04.696Z,9.00
2018-11-01T00:46:27.525Z,6.67
2018-11-01T00:48:57.038Z,8.50
2018-11-01T00:51:26.090Z,7.67
2018-11-01T00:53:59.027Z,9.13
2018-11-01T00:56:29.372Z,8.90
2018-11-01T00:58:59.588Z,6.57
2018-11-01T01:01:29.033Z,6.50
2018-11-01T01:03:57.992Z,6.17
2018-11-01T01:06:26.953Z,8.17
2018-11-01T01:08:56.001Z,7.63
2018-11-01T01:11:24.943Z,7.63
2018-11-01T01:13:53.865Z,8.10
2018-11-01T01:16:22.761Z,5.03
2018-11-01T01:18:52.676Z,5.97
2018-11-01T01:21:26.992Z,7.20
2018-11-01T01:23:57.279Z,6.03
2018-11-01T01:26:26.616Z,6.17
2018-11-01T01:28:55.489Z,7.77
2018-11-01T01:31:24.247Z,5.43
2018-11-01T01:33:53.264Z,5.43
2018-11-01T01:36:22.127Z,5.97
2018-11-01T01:38:51.961Z,7.53
2018-11-01T01:41:21.191Z,4.50
2018-11-01T01:43:50.197Z,4.93
2018-11-01T01:46:19.705Z,6.50
2018-11-01T01:48:48.572Z,5.60
2018-11-01T01:51:17.422Z,4.53
2018-11-01T01:53:46.703Z,4.27
2018-11-01T01:56:15.729Z,5.10
2018-11-01T01:58:44.659Z,3.93
2018-11-01T02:01:13.780Z,5.17
2018-11-01T02:03:42.688Z,4.43
2018-11-01T02:06:12.331Z,6.63
2018-11-01T02:08:41.661Z,5.03
2018-11-01T02:11:13.451Z,7.67
2018-11-01T02:13:42.095Z,5.53
2018-11-01T02:16:10.871Z,4.60
2018-11-01T02:18:40.181Z,3.80
2018-11-01T02:21:09.330Z,6.57
2018-11-01T02:23:38.383Z,5.47
2018-11-01T02:26:07.422Z,5.43
2018-11-01T02:28:36.870Z,6.00
2018-11-01T02:31:06.221Z,5.30
2018-11-01T02:33:38.700Z,6.60
2018-11-01T02:36:09.507Z,3.63
2018-11-01T02:38:39.083Z,4.03
2018-11-01T02:41:09.505Z,11.93
2018-11-01T02:43:39.326Z,7.53
2018-11-01T02:46:09.104Z,5.57
2018-11-01T02:48:38.211Z,4.53
2018-11-01T02:51:08.136Z,4.80
2018-11-01T02:53:37.200Z,5.67
2018-11-01T02:56:06.916Z,6.33
2018-11-01T02:58:36.356Z,6.73
2018-11-01T03:01:05.455Z,3.90
2018-11-01T03:03:35.279Z,6.67
2018-11-01T03:06:04.643Z,4.63
2018-11-01T03:08:35.096Z,7.57
2018-11-01T03:11:05.212Z,7.97
2018-11-01T03:13:34.892Z,4.97
2018-11-01T03:16:04.768Z,4.23
2018-11-01T03:18:33.758Z,5.07
2018-11-01T03:21:04.403Z,6.10
2018-11-01T03:23:33.839Z,6.20
2018-11-01T03:26:03.256Z,6.47
2018-11-01T03:28:32.348Z,5.80
2018-11-01T03:31:04.503Z,6.37
2018-11-01T03:33:34.596Z,5.27
2018-11-01T03:36:03.535Z,4.70
2018-11-01T03:38:33.269Z,6.30
2018-11-01T03:41:02.160Z,4.53
2018-11-01T03:43:31.473Z,4.40
2018-11-01T03:46:02.027Z,5.20
2018-11-01T03:48:31.815Z,5.43
2018-11-01T03:51:01.337Z,4.20
2018-11-01T03:53:30.472Z,7.27
2018-11-01T03:55:59.261Z,6.87
2018-11-01T03:58:28.517Z,5.37
2018-11-01T04:00:57.906Z,4.23
2018-11-01T04:03:27.851Z,6.40
2018-11-01T04:05:56.530Z,6.63
2018-11-01T04:08:25.440Z,6.80
2018-11-01T04:10:54.928Z,6.03
2018-11-01T04:13:24.507Z,4.00
2018-11-01T04:15:53.655Z,8.70
2018-11-01T04:18:22.690Z,6.27
2018-11-01T04:20:51.469Z,4.63
2018-11-01T04:23:20.807Z,5.70
2018-11-01T04:25:50.064Z,6.33
2018-11-01T04:28:19.128Z,4.40
2018-11-01T04:30:48.311Z,7.03
2018-11-01T04:33:17.505Z,5.20
2018-11-01T04:35:47.676Z,5.33
2018-11-01T04:38:16.805Z,5.07
2018-11-01T04:40:45.653Z,4.80
2018-11-01T04:43:15.055Z,8.13
2018-11-01T04:45:44.594Z,5.57
2018-11-01T04:48:13.955Z,4.30
2018-11-01T04:50:46.383Z,7.13
2018-11-01T04:53:15.362Z,4.30
2018-11-01T04:55:44.274Z,5.73
2018-11-01T04:58:13.352Z,4.60
2018-11-01T05:00:42.587Z,4.23
2018-11-01T05:03:11.656Z,3.77
2018-11-01T05:05:41.012Z,7.27
2018-11-01T05:08:10.046Z,5.40
2018-11-01T05:10:39.240Z,4.23
2018-11-01T05:13:08.392Z,4.27
2018-11-01T05:15:37.284Z,5.20
2018-11-01T05:18:06.676Z,5.13
2018-11-01T05:20:35.903Z,3.93
2018-11-01T05:23:05.116Z,4.33
2018-11-01T05:25:35.378Z,3.43
2018-11-01T05:28:04.410Z,6.27
2018-11-01T05:30:35.492Z,4.83
2018-11-01T05:33:04.499Z,3.93
2018-11-01T05:35:33.396Z,4.83
2018-11-01T05:38:02.682Z,9.10
2018-11-01T05:40:31.558Z,5.70
2018-11-01T05:43:00.801Z,5.07
2018-11-01T05:45:30.025Z,7.17
2018-11-01T05:47:59.071Z,3.90
2018-11-01T05:50:28.135Z,6.53
2018-11-01T05:52:57.178Z,8.00
2018-11-01T05:55:26.201Z,4.93
2018-11-01T05:57:55.429Z,4.63
2018-11-01T06:00:24.561Z,5.60
2018-11-01T06:02:53.477Z,5.20
2018-11-01T06:05:24.751Z,3.83
2018-11-01T06:07:56.779Z,4.23
2018-11-01T06:10:25.789Z,4.00
2018-11-01T06:12:54.602Z,4.07
2018-11-01T06:15:23.982Z,6.43
2018-11-01T06:20:48.809Z,6.17
2018-11-01T06:23:18.469Z,3.13
2018-11-01T06:25:47.809Z,4.30
2018-11-01T06:28:21.807Z,4.80
2018-11-01T06:30:55.830Z,8.73
2018-11-01T06:33:24.992Z,7.73
2018-11-01T06:35:58.901Z,5.03
2018-11-01T06:38:27.963Z,7.13
2018-11-01T06:40:56.904Z,5.33
2018-11-01T06:43:25.824Z,6.00
2018-11-01T06:45:54.808Z,4.13
2018-11-01T06:48:23.969Z,5.47
2018-11-01T06:50:52.956Z,3.90
2018-11-01T06:53:22.150Z,5.13
2018-11-01T06:55:51.411Z,5.80
2018-11-01T06:58:20.439Z,4.17
2018-11-01T07:00:49.882Z,4.50
2018-11-01T07:03:19.074Z,4.27
2018-11-01T07:05:48.313Z,5.33
2018-11-01T07:08:28.271Z,4.60
2018-11-01T07:10:57.192Z,4.73
2018-11-01T07:13:37.031Z,7.07
2018-11-01T07:16:06.162Z,3.17
2018-11-01T07:18:35.560Z,7.73
2018-11-01T07:21:04.329Z,5.77
2018-11-01T07:23:33.339Z,6.30
2018-11-01T07:26:03.026Z,4.53
2018-11-01T07:28:31.661Z,6.27
2018-11-01T07:31:02.154Z,4.60
2018-11-01T07:33:33.722Z,3.37
2018-11-01T07:36:03.317Z,3.43
2018-11-01T07:38:32.466Z,4.83
2018-11-01T07:41:01.785Z,7.50
2018-11-01T07:43:31.237Z,4.27
2018-11-01T07:46:01.464Z,2.87
2018-11-01T07:48:30.657Z,8.20
2018-11-01T07:51:00.730Z,4.10
2018-11-01T07:53:30.595Z,5.07
2018-11-01T07:56:00.244Z,2.77
2018-11-01T07:58:30.485Z,5.93
2018-11-01T08:00:59.934Z,5.57
2018-11-01T08:03:29.181Z,2.87
2018-11-01T08:05:58.691Z,4.60
2018-11-01T08:08:27.333Z,4.00
2018-11-01T08:10:56.468Z,6.53
2018-11-01T08:13:25.366Z,2.87
2018-11-01T08:15:54.125Z,3.83
2018-11-01T08:18:23.342Z,7.23
2018-11-01T08:20:52.976Z,3.33
2018-11-01T08:23:22.006Z,5.40
2018-11-01T08:25:51.084Z,4.17
2018-11-01T08:28:20.106Z,3.67
2018-11-01T08:30:48.803Z,7.63
2018-11-01T08:33:17.807Z,2.87
2018-11-01T08:35:48.197Z,4.50
2018-11-01T08:38:17.202Z,3.20
2018-11-01T08:40:46.118Z,4.87
2018-11-01T08:43:15.367Z,4.07
2018-11-01T08:46:06.144Z,5.43
2018-11-01T08:48:42.376Z,3.57
2018-11-01T08:51:11.564Z,3.43
2018-11-01T08:53:40.431Z,7.57
2018-11-01T08:56:10.418Z,6.17
2018-11-01T08:58:39.486Z,4.27
2018-11-01T09:01:08.390Z,5.77
2018-11-01T09:03:37.430Z,4.17
2018-11-01T09:06:16.521Z,4.50
2018-11-01T09:08:46.380Z,4.37
2018-11-01T09:11:15.253Z,3.13
2018-11-01T09:13:44.540Z,4.53
2018-11-01T09:16:13.227Z,3.87
2018-11-01T09:18:42.282Z,2.87
2018-11-01T09:21:11.239Z,4.07
2018-11-01T09:23:48.737Z,4.33
2018-11-01T09:26:18.375Z,3.17
2018-11-01T09:28:47.606Z,7.17
2018-11-01T09:31:16.485Z,4.40
2018-11-01T09:33:45.617Z,4.00
2018-11-01T09:36:14.731Z,3.80
2018-11-01T09:38:43.473Z,5.47
2018-11-01T09:41:12.383Z,4.37
2018-11-01T09:43:53.473Z,2.47
2018-11-01T09:46:23.990Z,4.63
2018-11-01T09:48:52.471Z,4.40
2018-11-01T09:51:22.018Z,4.03
2018-11-01T09:53:51.002Z,5.63
2018-11-01T09:56:19.990Z,4.53
2018-11-01T09:58:48.784Z,6.37
2018-11-01T10:01:18.077Z,5.53
2018-11-01T10:03:46.785Z,4.17
2018-11-01T10:06:15.949Z,3.83
2018-11-01T10:08:44.600Z,4.23
2018-11-01T10:11:24.208Z,4.17
2018-11-01T10:13:53.453Z,3.67
2018-11-01T10:16:22.924Z,4.50
2018-11-01T10:18:52.146Z,4.27
2018-11-01T10:21:21.427Z,4.33
2018-11-01T10:23:51.298Z,6.63
2018-11-01T10:26:21.046Z,4.30
2018-11-01T10:28:50.126Z,4.07
2018-11-01T10:31:23.391Z,6.20
2018-11-01T10:33:57.858Z,4.40
2018-11-01T10:36:27.352Z,6.90
2018-11-01T10:38:56.395Z,3.23
2018-11-01T10:41:25.404Z,3.73
2018-11-01T10:43:55.132Z,8.43
2018-11-01T10:46:24.400Z,4.83
2018-11-01T10:48:53.472Z,5.60
2018-11-01T10:51:22.488Z,9.17
2018-11-01T10:53:55.146Z,7.73
2018-11-01T10:56:26.926Z,7.07
2018-11-01T10:58:58.986Z,4.77
2018-11-01T11:01:37.778Z,6.87
2018-11-01T11:04:08.300Z,4.43
2018-11-01T11:06:37.185Z,4.70
2018-11-01T11:09:09.095Z,5.13
2018-11-01T11:11:39.334Z,3.80
2018-11-01T11:14:08.406Z,8.13
2018-11-01T11:16:40.722Z,6.90
2018-11-01T11:19:09.554Z,7.77
2018-11-01T11:21:38.676Z,4.13
2018-11-01T11:24:07.799Z,6.57
2018-11-01T11:26:36.948Z,4.67
2018-11-01T11:29:06.633Z,4.93
2018-11-01T11:31:35.454Z,5.00
2018-11-01T11:34:04.826Z,4.37
2018-11-01T11:36:34.113Z,6.07
2018-11-01T11:39:03.711Z,3.70
2018-11-01T11:41:32.951Z,5.13
2018-11-01T11:44:02.633Z,2.43
2018-11-01T11:46:31.978Z,7.30
2018-11-01T11:49:02.433Z,4.63
2018-11-01T11:51:31.874Z,7.70
2018-11-01T11:54:00.572Z,3.60
2018-11-01T11:56:29.711Z,3.37
2018-11-01T11:58:58.438Z,3.83
2018-11-01T12:01:27.154Z,7.20
2018-11-01T12:03:56.134Z,7.53
2018-11-01T12:06:25.529Z,3.93
2018-11-01T12:08:54.377Z,5.07
2018-11-01T12:11:23.447Z,5.20
2018-11-01T12:13:52.615Z,5.33
2018-11-01T12:16:21.839Z,7.97
2018-11-01T12:18:52.452Z,5.33
2018-11-01T12:21:21.527Z,4.57
2018-11-01T12:23:50.774Z,5.23
2018-11-01T12:26:19.929Z,5.70
2018-11-01T12:28:50.701Z,9.20
2018-11-01T12:31:20.607Z,31.90
2018-11-01T12:33:49.485Z,33.27
2018-11-01T12:36:18.766Z,19.20
2018-11-01T12:38:48.722Z,48.80
2018-11-01T12:41:18.759Z,142.10
2018-11-01T12:43:48.431Z,98.27
2018-11-01T12:46:17.458Z,6.17
2018-11-01T12:48:46.946Z,4.27
2018-11-01T12:51:16.304Z,3.57
2018-11-01T12:53:45.356Z,4.70
2018-11-01T12:56:14.677Z,3.67
2018-11-01T12:58:43.624Z,6.03
2018-11-01T13:01:14.469Z,4.07
2018-11-01T13:03:43.383Z,3.77
2018-11-01T13:06:12.382Z,3.43
2018-11-01T13:08:41.281Z,6.27
2018-11-01T13:11:10.335Z,5.17
2018-11-01T13:13:39.204Z,6.60
2018-11-01T13:16:08.202Z,4.43
2018-11-01T13:18:37.378Z,4.73
2018-11-01T13:21:06.431Z,5.53
2018-11-01T13:23:35.302Z,3.17
2018-11-01T13:26:04.466Z,5.30
2018-11-01T13:28:33.259Z,8.07
2018-11-01T13:31:02.344Z,4.30
2018-11-01T13:33:31.720Z,6.60
2018-11-01T13:36:02.335Z,4.97
2018-11-01T13:38:31.397Z,5.03
2018-11-01T13:41:01.114Z,6.20
2018-11-01T13:43:29.695Z,3.50
2018-11-01T13:45:59.799Z,6.80
2018-11-01T13:48:28.932Z,5.27
2018-11-01T13:50:57.410Z,5.03
2018-11-01T13:53:26.196Z,3.97
2018-11-01T13:55:56.256Z,5.27
2018-11-01T13:58:24.892Z,3.23
2018-11-01T14:00:53.766Z,4.63
2018-11-01T14:03:22.471Z,5.17
2018-11-01T14:05:51.434Z,6.43
2018-11-01T14:08:20.107Z,4.33
2018-11-01T14:10:48.900Z,4.73
2018-11-01T14:13:18.041Z,6.53
2018-11-01T14:15:47.080Z,3.67
2018-11-01T14:18:17.120Z,4.20
2018-11-01T14:20:47.107Z,3.63
2018-11-01T14:23:17.550Z,5.90
2018-11-01T14:25:47.433Z,5.33
2018-11-01T14:28:18.169Z,5.13
2018-11-01T14:30:47.804Z,7.70
2018-11-01T14:33:16.986Z,5.17
2018-11-01T14:35:48.802Z,5.70
2018-11-01T14:38:19.480Z,7.10
2018-11-01T14:40:49.070Z,3.63
2018-11-01T14:43:19.325Z,6.03
2018-11-01T14:45:49.158Z,5.77
2018-11-01T14:48:18.442Z,5.87
2018-11-01T14:50:47.746Z,5.57
2018-11-01T14:53:17.862Z,4.70
2018-11-01T14:55:49.343Z,5.87
2018-11-01T14:58:26.980Z,4.43
2018-11-01T15:00:54.647Z,7.90
2018-11-01T15:03:24.221Z,4.43
2018-11-01T15:05:54.044Z,4.73
2018-11-01T15:08:23.783Z,5.50
2018-11-01T15:10:52.713Z,4.47
2018-11-01T15:13:22.132Z,6.63
2018-11-01T15:15:51.099Z,5.80
2018-11-01T15:18:20.270Z,3.70
2018-11-01T15:20:49.359Z,6.23
2018-11-01T15:23:18.466Z,5.57
2018-11-01T15:25:47.169Z,4.40
2018-11-01T15:28:18.164Z,7.60
2018-11-01T15:30:47.703Z,8.00
2018-11-01T15:33:17.043Z,5.00
2018-11-01T15:35:46.048Z,7.47
2018-11-01T15:38:14.956Z,4.97
2018-11-01T15:40:47.013Z,7.33
2018-11-01T15:43:16.483Z,5.40
2018-11-01T15:45:45.748Z,5.17
2018-11-01T15:48:14.847Z,3.83
2018-11-01T15:50:43.849Z,5.00
2018-11-01T15:53:12.708Z,8.47
2018-11-01T15:55:42.189Z,6.00
2018-11-01T15:58:11.410Z,4.17
2018-11-01T16:00:41.446Z,4.07
2018-11-01T16:03:10.674Z,4.33
2018-11-01T16:05:39.880Z,5.60
2018-11-01T16:08:09.031Z,6.37
2018-11-01T16:10:38.567Z,4.33
2018-11-01T16:13:08.003Z,7.83
2018-11-01T16:15:36.999Z,6.30
2018-11-01T16:18:07.134Z,4.63
2018-11-01T16:20:36.395Z,9.77
2018-11-01T16:23:06.420Z,5.17
2018-11-01T16:25:35.355Z,5.83
2018-11-01T16:28:04.658Z,6.00
2018-11-01T16:30:33.947Z,6.97
2018-11-01T16:33:04.329Z,6.27
2018-11-01T16:35:34.522Z,6.37
2018-11-01T16:38:04.931Z,5.53
2018-11-01T16:40:36.609Z,5.40
2018-11-01T16:43:06.788Z,5.20
2018-11-01T16:45:36.353Z,6.73
2018-11-01T16:48:06.478Z,5.73
2018-11-01T16:50:35.592Z,6.70
2018-11-01T16:53:07.329Z,6.13
2018-11-01T16:55:36.580Z,5.30
2018-11-01T16:58:05.447Z,5.20
2018-11-01T17:00:36.567Z,6.50
2018-11-01T17:03:06.154Z,5.87
2018-11-01T17:05:36.530Z,5.50
2018-11-01T17:08:06.381Z,7.27
2018-11-01T17:10:39.953Z,9.07
2018-11-01T17:13:10.562Z,7.80
2018-11-01T17:15:39.939Z,7.60
2018-11-01T17:18:12.864Z,7.83
2018-11-01T17:20:41.847Z,5.40
2018-11-01T17:23:10.740Z,6.73
2018-11-01T17:25:39.571Z,5.73
2018-11-01T17:28:08.568Z,6.30
2018-11-01T17:30:38.699Z,6.60
2018-11-01T17:33:08.522Z,6.53
2018-11-01T17:35:39.491Z,7.20
2018-11-01T17:38:08.737Z,7.10
2018-11-01T17:40:37.562Z,7.77
2018-11-01T17:43:06.947Z,8.30
2018-11-01T17:45:36.034Z,4.60
2018-11-01T17:48:05.189Z,6.53
2018-11-01T17:50:34.343Z,6.93
2018-11-01T17:53:03.282Z,7.13
2018-11-01T17:55:32.127Z,6.70
2018-11-01T17:58:01.172Z,7.13
2018-11-01T18:00:31.255Z,4.93
2018-11-01T18:03:00.802Z,7.40
2018-11-01T18:05:29.644Z,7.57
2018-11-01T18:07:58.631Z,5.60
2018-11-01T18:10:27.612Z,6.83
2018-11-01T18:12:57.225Z,6.40
2018-11-01T18:15:26.352Z,6.20
2018-11-01T18:17:56.306Z,6.53
2018-11-01T18:20:25.741Z,7.60
2018-11-01T18:22:55.814Z,7.03
2018-11-01T18:25:25.327Z,8.73
2018-11-01T18:27:54.975Z,6.10
2018-11-01T18:30:25.220Z,8.27
2018-11-01T18:32:55.339Z,6.23
2018-11-01T18:35:25.379Z,6.33
2018-11-01T18:37:55.119Z,8.80
2018-11-01T18:40:28.636Z,8.60
2018-11-01T18:42:58.366Z,5.67
2018-11-01T18:45:28.404Z,6.10
2018-11-01T18:47:57.416Z,5.77
2018-11-01T18:50:27.182Z,5.73
2018-11-01T18:52:58.240Z,7.67
2018-11-01T18:55:29.004Z,5.30
2018-11-01T18:57:59.287Z,7.30
2018-11-01T19:00:28.799Z,7.57
2018-11-01T19:02:57.954Z,8.43
2018-11-01T19:05:27.171Z,9.10
2018-11-01T19:07:56.394Z,7.80
2018-11-01T19:10:26.078Z,6.40
2018-11-01T19:12:55.285Z,8.93
2018-11-01T19:15:25.139Z,8.87
2018-11-01T19:17:56.760Z,8.10
2018-11-01T19:20:26.351Z,7.07
2018-11-01T19:22:56.208Z,6.37
2018-11-01T19:25:25.898Z,9.17
2018-11-01T19:27:55.875Z,8.03
2018-11-01T19:30:34.635Z,8.37
2018-11-01T19:33:04.391Z,8.07
2018-11-01T19:35:33.392Z,10.07
2018-11-01T19:38:02.269Z,6.97
2018-11-01T19:40:31.825Z,7.30
2018-11-01T19:43:04.394Z,7.37
2018-11-01T19:45:35.445Z,7.57
2018-11-01T19:48:05.827Z,11.07
2018-11-01T19:50:36.710Z,9.43
2018-11-01T19:53:06.245Z,8.07
2018-11-01T19:55:35.312Z,8.77
2018-11-01T19:58:04.163Z,8.33
2018-11-01T20:00:33.470Z,7.67
2018-11-01T20:03:03.777Z,10.47
2018-11-01T20:05:34.634Z,8.17
2018-11-01T20:08:05.572Z,11.37
2018-11-01T20:10:36.508Z,7.37
2018-11-01T20:13:07.592Z,10.10
2018-11-01T20:15:37.892Z,8.53
2018-11-01T20:18:15.293Z,9.17
2018-11-01T20:20:45.678Z,9.17
2018-11-01T20:23:15.055Z,7.30
2018-11-01T20:25:44.575Z,8.70
2018-11-01T20:28:14.119Z,9.83
2018-11-01T20:30:43.731Z,10.50
2018-11-01T20:33:13.370Z,7.70
2018-11-01T20:35:42.273Z,7.90
2018-11-01T20:38:11.821Z,10.13
2018-11-01T20:40:45.887Z,8.50
2018-11-01T20:43:31.426Z,9.13
2018-11-01T20:46:01.870Z,9.80
2018-11-01T20:48:39.679Z,7.67
2018-11-01T20:51:09.035Z,8.67
2018-11-01T20:53:59.233Z,10.77
2018-11-01T20:56:49.053Z,10.43
2018-11-01T20:59:19.716Z,9.67
2018-11-01T21:01:50.475Z,10.93
2018-11-01T21:04:19.533Z,10.40
2018-11-01T21:06:48.850Z,10.60
2018-11-01T21:09:18.041Z,12.43
2018-11-01T21:11:49.200Z,11.87
2018-11-01T21:14:17.866Z,11.97
2018-11-01T21:16:46.961Z,13.33
2018-11-01T21:19:33.604Z,12.73
2018-11-01T21:22:03.079Z,14.60
2018-11-01T21:24:33.926Z,15.70
2018-11-01T21:27:02.878Z,15.03
2018-11-01T21:29:32.846Z,13.07
2018-11-01T21:32:01.950Z,15.27
2018-11-01T21:34:31.580Z,12.90
2018-11-01T21:37:00.884Z,20.37
2018-11-01T21:39:30.096Z,14.47
2018-11-01T21:41:59.398Z,14.80
2018-11-01T21:44:31.278Z,14.27
2018-11-01T21:47:00.357Z,14.53
2018-11-01T21:49:29.579Z,16.23
2018-11-01T21:51:58.576Z,19.73
2018-11-01T21:54:28.065Z,18.73
2018-11-01T21:56:56.992Z,16.70
2018-11-01T21:59:26.078Z,16.73
2018-11-01T22:01:55.011Z,16.63
2018-11-01T22:04:24.275Z,16.70
2018-11-01T22:06:53.480Z,16.50
2018-11-01T22:09:22.580Z,15.93
2018-11-01T22:11:51.464Z,18.50
2018-11-01T22:14:20.398Z,15.60
2018-11-01T22:16:49.487Z,15.73
2018-11-01T22:19:18.962Z,16.93
2018-11-01T22:21:47.996Z,17.53
2018-11-01T22:24:17.102Z,17.13
2018-11-01T22:26:46.101Z,15.73
2018-11-01T22:29:15.152Z,17.43
2018-11-01T22:31:43.979Z,14.90
2018-11-01T22:34:12.949Z,17.97
2018-11-01T22:36:42.204Z,18.07
2018-11-01T22:39:11.554Z,24.60
2018-11-01T22:41:40.477Z,15.17
2018-11-01T22:44:09.935Z,17.33
2018-11-01T22:46:38.989Z,15.83
2018-11-01T22:49:07.968Z,17.70
2018-11-01T22:51:37.081Z,16.30
2018-11-01T22:54:06.503Z,17.00
2018-11-01T22:56:35.482Z,17.07
2018-11-01T22:59:10.576Z,19.23
2018-11-01T23:01:39.412Z,21.53
2018-11-01T23:04:08.443Z,19.87
2018-11-01T23:06:37.598Z,17.27
2018-11-01T23:09:08.390Z,20.50
2018-11-01T23:11:37.552Z,17.20
2018-11-01T23:14:06.360Z,16.63
2018-11-01T23:16:35.256Z,18.97
2018-11-01T23:19:04.652Z,16.90
2018-11-01T23:21:33.635Z,18.50
2018-11-01T23:24:02.781Z,15.80
2018-11-01T23:26:31.671Z,17.47
2018-11-01T23:29:00.712Z,15.57
2018-11-01T23:31:29.589Z,18.10
2018-11-01T23:33:58.590Z,17.17
2018-11-01T23:36:26.974Z,14.67
2018-11-01T23:39:00.989Z,16.70
2018-11-01T23:41:35.117Z,13.47
2018-11-01T23:44:10.509Z,18.00
2018-11-01T23:46:44.721Z,19.20
2018-11-01T23:49:17.136Z,16.30
2018-11-01T23:51:50.134Z,14.23
2018-11-01T23:54:19.055Z,11.93
2018-11-01T23:59:22.213Z,12.47
